Time;durP1;ratioP1;P1;durP2;ratioP2;P2;SDS_P1;SDS_P2;PMS_P1;PMS_P2;Temp;Humidity;BMP_temperature;BMP_pressure;BME280_temperature;BME280_humidity;BME280_pressure;Samples;Min_cycle;Max_cycle;Signal;HPM_P1;HPM_P2
2022/01/12 00:02:01;;;;;;;18.95;11.52;;;;;;;;;;5084920;28;20024;-85
2022/01/12 00:04:27;;;;;;;22.85;11.35;;;;;;;;;;5084610;28;20036;-85
2022/01/12 00:06:52;;;;;;;20.38;10.95;;;;;;;;;;5086172;28;20034;-84
2022/01/12 00:09:17;;;;;;;20.08;10.82;;;;;;;;;;5086727;28;20055;-86
2022/01/12 00:11:43;;;;;;;21.15;10.98;;;;;;;;;;5082831;28;20092;-86
2022/01/12 00:14:08;;;;;;;21.33;10.95;;;;;;;;;;5079808;28;20096;-84
2022/01/12 00:16:34;;;;;;;17.38;10.73;;;;;;;;;;5079786;28;20030;-85
2022/01/12 00:19:00;;;;;;;18.92;11.25;;;;;;;;;;5085828;28;20028;-88
2022/01/12 00:21:25;;;;;;;19.08;10.90;;;;;;;;;;5083362;28;20027;-83
2022/01/12 00:23:51;;;;;;;20.73;11.07;;;;;;;;;;5085851;28;20106;-86
2022/01/12 00:34:26;;;;;;;18.45;10.93;;;;;;;;;;5102414;28;20034;-87
2022/01/12 00:36:51;;;;;;;19.40;11.07;;;;;;;;;;5086334;28;20028;-85
2022/01/12 00:39:17;;;;;;;20.17;11.73;;;;;;;;;;5092400;28;20027;-87
2022/01/12 00:41:42;;;;;;;19.15;11.85;;;;;;;;;;5084169;28;20127;-85
2022/01/12 00:44:10;;;;;;;22.23;12.23;;;;;;;;;;5089115;28;20126;-86
2022/01/12 00:46:38;;;;;;;20.65;11.90;;;;;;;;;;5081800;28;20028;-85
2022/01/12 00:49:03;;;;;;;20.90;11.38;;;;;;;;;;5082708;27;20028;-85
2022/01/12 00:51:33;;;;;;;22.42;12.55;;;;;;;;;;5082180;28;20105;-85
2022/01/12 00:54:01;;;;;;;22.58;12.07;;;;;;;;;;5085950;28;20031;-85
2022/01/12 00:56:27;;;;;;;19.58;11.60;;;;;;;;;;5085454;28;20039;-85
2022/01/12 00:58:53;;;;;;;20.38;12.20;;;;;;;;;;5107336;28;20024;-86
2022/01/12 01:01:19;;;;;;;23.52;13.27;;;;;;;;;;5085895;28;20038;-85
2022/01/12 01:03:47;;;;;;;23.45;10.75;;;;;;;;;;5089955;28;20160;-85
2022/01/12 01:06:12;;;;;;;21.15;11.38;;;;;;;;;;5083272;28;20016;-85
2022/01/12 01:08:39;;;;;;;21.50;12.93;;;;;;;;;;5098022;28;20160;-84
2022/01/12 01:11:06;;;;;;;23.15;12.95;;;;;;;;;;5100592;28;20053;-86
2022/01/12 01:13:44;;;;;;;22.10;12.73;;;;;;;;;;5088017;28;20477;-85
2022/01/12 01:16:24;;;;;;;19.55;11.40;;;;;;;;;;5079882;28;20039;-88
2022/01/12 01:27:02;;;;;;;22.65;12.88;;;;;;;;;;5099787;28;20090;-86
2022/01/12 01:29:28;;;;;;;23.85;13.07;;;;;;;;;;5081650;28;20497;-86
2022/01/12 01:31:53;;;;;;;22.63;12.25;;;;;;;;;;5081875;28;20028;-87
2022/01/12 01:34:19;;;;;;;23.45;13.70;;;;;;;;;;5075093;28;20046;-86
2022/01/12 01:36:48;;;;;;;24.95;14.02;;;;;;;;;;5078665;28;20047;-86
2022/01/12 01:39:17;;;;;;;23.00;13.77;;;;;;;;;;5084451;28;20031;-86
2022/01/12 01:41:48;;;;;;;22.05;13.48;;;;;;;;;;5083689;28;20032;-86
2022/01/12 01:54:52;;;;;;;23.83;14.05;;;;;;;;;;5096044;28;20039;-87
2022/01/12 01:57:18;;;;;;;24.10;14.00;;;;;;;;;;5084108;28;20024;-84
2022/01/12 01:59:45;;;;;;;24.08;14.73;;;;;;;;;;5088518;28;20036;-85
2022/01/12 02:02:11;;;;;;;23.75;14.35;;;;;;;;;;5098661;28;20028;-85
2022/01/12 02:04:36;;;;;;;23.75;14.45;;;;;;;;;;5076997;28;20497;-84
2022/01/12 02:07:02;;;;;;;24.83;14.40;;;;;;;;;;5080634;28;20077;-87
2022/01/12 02:09:27;;;;;;;26.52;14.98;;;;;;;;;;5082670;28;20020;-86
2022/01/12 02:11:53;;;;;;;24.00;14.48;;;;;;;;;;5088917;28;20094;-87
2022/01/12 02:14:19;;;;;;;25.63;14.90;;;;;;;;;;5083302;28;20035;-85
2022/01/12 02:16:57;;;;;;;25.08;14.02;;;;;;;;;;5084157;28;20027;-85
2022/01/12 02:35:54;;;;;;;23.70;14.68;;;;;;;;;;5099696;28;20042;-85
2022/01/12 02:41:04;;;;;;;26.08;14.05;;;;;;;;;;5098781;28;20034;-85
2022/01/12 02:50:34;;;;;;;29.27;16.45;;;;;;;;;;5081400;28;20027;-87
2022/01/12 02:54:27;;;;;;;29.63;16.50;;;;;;;;;;5096478;28;20027;-85
2022/01/12 02:56:53;;;;;;;29.58;15.18;;;;;;;;;;5078449;28;20023;-85
2022/01/12 02:59:18;;;;;;;26.73;14.85;;;;;;;;;;5084915;28;20507;-85
2022/01/12 03:02:13;;;;;;;30.45;15.63;;;;;;;;;;5104023;28;20065;-85
2022/01/12 03:04:48;;;;;;;26.90;15.07;;;;;;;;;;5097029;27;20031;-84
2022/01/12 03:07:16;;;;;;;32.17;16.65;;;;;;;;;;5098221;28;20079;-84
2022/01/12 03:09:41;;;;;;;28.38;16.40;;;;;;;;;;5095489;28;20377;-85
2022/01/12 03:12:07;;;;;;;30.38;16.25;;;;;;;;;;5084627;28;20032;-85
2022/01/12 03:14:32;;;;;;;31.75;16.77;;;;;;;;;;5098746;28;20035;-85
2022/01/12 03:16:58;;;;;;;27.05;15.73;;;;;;;;;;5083561;28;20043;-84
2022/01/12 03:19:23;;;;;;;29.55;16.73;;;;;;;;;;5081240;28;20031;-87
2022/01/12 03:21:48;;;;;;;31.58;17.30;;;;;;;;;;5085964;28;20023;-86
2022/01/12 03:24:14;;;;;;;29.63;15.23;;;;;;;;;;5079566;28;20471;-85
2022/01/12 03:26:39;;;;;;;29.65;16.40;;;;;;;;;;5102822;28;20058;-85
2022/01/12 03:29:05;;;;;;;29.13;16.17;;;;;;;;;;5088469;28;20034;-85
2022/01/12 03:31:34;;;;;;;30.52;16.42;;;;;;;;;;5082074;28;20055;-86
2022/01/12 03:39:14;;;;;;;31.17;16.45;;;;;;;;;;5101991;28;20119;-86
2022/01/12 03:41:42;;;;;;;27.98;16.70;;;;;;;;;;5079061;28;20028;-86
2022/01/12 03:44:10;;;;;;;28.98;17.35;;;;;;;;;;5095094;28;20392;-85
2022/01/12 03:46:50;;;;;;;33.72;18.45;;;;;;;;;;5081918;28;20066;-86
2022/01/12 03:49:17;;;;;;;32.50;17.13;;;;;;;;;;5088117;28;20020;-85
2022/01/12 03:51:44;;;;;;;30.38;17.40;;;;;;;;;;5084625;28;20090;-87
2022/01/12 03:54:09;;;;;;;30.63;16.65;;;;;;;;;;5083562;28;20028;-86
2022/01/12 03:56:35;;;;;;;32.53;18.27;;;;;;;;;;5082581;28;20039;-86
2022/01/12 03:59:01;;;;;;;30.42;18.40;;;;;;;;;;5091458;28;20228;-85
2022/01/12 04:01:26;;;;;;;32.50;17.92;;;;;;;;;;5090221;28;20553;-87
2022/01/12 04:04:02;;;;;;;31.50;17.38;;;;;;;;;;5099271;28;20028;-85
2022/01/12 04:09:11;;;;;;;30.55;17.70;;;;;;;;;;5107322;27;20038;-87
2022/01/12 04:11:37;;;;;;;28.65;16.73;;;;;;;;;;5083748;28;20016;-85
2022/01/12 04:14:04;;;;;;;29.67;17.83;;;;;;;;;;5085165;28;20055;-86
2022/01/12 04:16:29;;;;;;;31.70;17.08;;;;;;;;;;5088118;28;20035;-84
2022/01/12 04:18:55;;;;;;;33.83;18.20;;;;;;;;;;5081530;28;20509;-85
2022/01/12 04:21:27;;;;;;;33.38;17.45;;;;;;;;;;5085825;28;20030;-85
2022/01/12 04:23:52;;;;;;;35.92;19.60;;;;;;;;;;5086188;28;20039;-85
2022/01/12 04:26:18;;;;;;;33.97;18.30;;;;;;;;;;5095734;28;20534;-86
2022/01/12 04:28:44;;;;;;;33.85;18.88;;;;;;;;;;5089218;28;20508;-86
2022/01/12 04:31:11;;;;;;;30.30;17.15;;;;;;;;;;5083077;28;20481;-85
2022/01/12 04:33:37;;;;;;;31.30;17.15;;;;;;;;;;5084587;28;20028;-85
2022/01/12 04:36:04;;;;;;;35.05;18.33;;;;;;;;;;5087656;28;20050;-85
2022/01/12 04:38:34;;;;;;;34.20;18.23;;;;;;;;;;5085919;28;20031;-86
2022/01/12 04:41:05;;;;;;;32.33;17.80;;;;;;;;;;5087763;28;20135;-84
2022/01/12 04:43:31;;;;;;;37.42;18.15;;;;;;;;;;5081136;28;20035;-86
2022/01/12 04:46:10;;;;;;;33.00;18.40;;;;;;;;;;5079201;28;20050;-86
2022/01/12 04:48:51;;;;;;;32.00;18.20;;;;;;;;;;5087535;28;20086;-85
2022/01/12 04:51:18;;;;;;;34.05;18.00;;;;;;;;;;5085132;28;20024;-87
2022/01/12 04:53:43;;;;;;;34.15;18.13;;;;;;;;;;5083494;28;20461;-85
2022/01/12 04:56:09;;;;;;;32.20;18.13;;;;;;;;;;5090302;28;20118;-85
2022/01/12 04:58:34;;;;;;;34.75;18.73;;;;;;;;;;5088966;28;20043;-85
2022/01/12 05:01:08;;;;;;;33.00;17.65;;;;;;;;;;5104761;28;20094;-87
2022/01/12 05:13:57;;;;;;;31.15;16.90;;;;;;;;;;5096861;28;20059;-85
2022/01/12 05:16:24;;;;;;;33.95;18.50;;;;;;;;;;5085062;28;20055;-86
2022/01/12 05:18:51;;;;;;;34.45;18.35;;;;;;;;;;5084352;28;20056;-85
2022/01/12 05:21:18;;;;;;;33.25;17.67;;;;;;;;;;5086093;28;20019;-86
2022/01/12 05:23:44;;;;;;;33.20;17.38;;;;;;;;;;5081976;28;20031;-85
2022/01/12 05:26:09;;;;;;;34.00;18.80;;;;;;;;;;5079528;28;20509;-85
2022/01/12 05:28:38;;;;;;;37.80;18.90;;;;;;;;;;5083806;28;20031;-85
2022/01/12 05:31:04;;;;;;;32.25;18.00;;;;;;;;;;5079503;28;20106;-84
2022/01/12 05:33:29;;;;;;;29.58;16.25;;;;;;;;;;5083208;28;20402;-85
2022/01/12 05:35:56;;;;;;;31.38;17.52;;;;;;;;;;5082997;28;20057;-86
2022/01/12 05:38:23;;;;;;;33.90;18.52;;;;;;;;;;5082072;28;20019;-86
2022/01/12 05:40:55;;;;;;;34.20;17.67;;;;;;;;;;5083035;28;20557;-87
2022/01/12 05:43:25;;;;;;;34.17;18.63;;;;;;;;;;5086170;28;20070;-85
2022/01/12 05:45:52;;;;;;;30.80;18.05;;;;;;;;;;5081584;28;20024;-84
2022/01/12 05:50:46;;;;;;;30.42;17.27;;;;;;;;;;5097172;28;20057;-85
2022/01/12 05:53:12;;;;;;;33.67;18.02;;;;;;;;;;5086034;28;20069;-85
2022/01/12 05:55:37;;;;;;;31.88;17.92;;;;;;;;;;5082149;28;20042;-84
2022/01/12 05:58:02;;;;;;;31.95;18.05;;;;;;;;;;5080318;28;20020;-86
2022/01/12 06:00:28;;;;;;;32.72;17.38;;;;;;;;;;5082571;28;20024;-86
2022/01/12 06:02:54;;;;;;;31.83;17.45;;;;;;;;;;5098852;28;20051;-87
2022/01/12 06:05:22;;;;;;;31.00;17.30;;;;;;;;;;5080487;28;20073;-85
2022/01/12 06:07:49;;;;;;;30.65;17.60;;;;;;;;;;5077678;28;20024;-87
2022/01/12 06:10:16;;;;;;;34.28;18.48;;;;;;;;;;5083015;28;20031;-85
2022/01/12 06:12:42;;;;;;;29.92;16.98;;;;;;;;;;5080453;28;20028;-85
2022/01/12 06:15:08;;;;;;;32.15;18.38;;;;;;;;;;5087768;28;20027;-84
2022/01/12 06:17:34;;;;;;;34.33;18.08;;;;;;;;;;5085631;28;20103;-85
2022/01/12 06:20:00;;;;;;;27.17;16.67;;;;;;;;;;5087051;28;20043;-85
2022/01/12 06:22:26;;;;;;;30.70;17.63;;;;;;;;;;5083548;28;20028;-86
2022/01/12 06:24:52;;;;;;;30.27;16.75;;;;;;;;;;5105562;28;20038;-86
2022/01/12 06:27:21;;;;;;;30.27;17.13;;;;;;;;;;5089418;28;20493;-85
2022/01/12 06:32:20;;;;;;;30.35;17.23;;;;;;;;;;5101096;28;20533;-87
2022/01/12 06:34:46;;;;;;;29.77;16.42;;;;;;;;;;5081484;28;20043;-84
2022/01/12 06:37:11;;;;;;;31.70;17.45;;;;;;;;;;5085045;28;20496;-86
2022/01/12 06:39:37;;;;;;;30.88;17.55;;;;;;;;;;5107553;28;20032;-85
2022/01/12 06:42:03;;;;;;;30.92;16.85;;;;;;;;;;5086612;28;20034;-86
2022/01/12 06:44:28;;;;;;;29.38;15.23;;;;;;;;;;5086705;28;20032;-85
2022/01/12 06:46:56;;;;;;;30.70;16.80;;;;;;;;;;5083091;28;20069;-85
2022/01/12 06:49:22;;;;;;;29.98;17.20;;;;;;;;;;5089897;28;20401;-85
2022/01/12 06:51:47;;;;;;;34.65;16.98;;;;;;;;;;5083925;28;20019;-85
2022/01/12 06:54:13;;;;;;;28.48;16.65;;;;;;;;;;5085148;28;20435;-85
2022/01/12 06:56:39;;;;;;;32.47;17.45;;;;;;;;;;5084187;28;20081;-87
2022/01/12 06:59:06;;;;;;;32.22;17.80;;;;;;;;;;5088218;28;20019;-86
2022/01/12 07:01:31;;;;;;;31.70;17.70;;;;;;;;;;5086641;28;20122;-86
2022/01/12 07:03:57;;;;;;;30.40;16.58;;;;;;;;;;5077266;28;20134;-87
2022/01/12 07:06:23;;;;;;;32.85;17.70;;;;;;;;;;5083148;28;20073;-85
2022/01/12 07:08:48;;;;;;;32.30;17.02;;;;;;;;;;5087295;28;20019;-85
2022/01/12 07:11:13;;;;;;;35.83;17.95;;;;;;;;;;5098362;28;20024;-87
2022/01/12 07:13:39;;;;;;;32.42;17.58;;;;;;;;;;5083052;27;20031;-85
2022/01/12 07:16:04;;;;;;;31.15;16.83;;;;;;;;;;5104621;28;20413;-86
2022/01/12 07:18:30;;;;;;;34.45;16.52;;;;;;;;;;5080946;28;20054;-85
2022/01/12 07:20:56;;;;;;;33.55;17.10;;;;;;;;;;5089506;28;20055;-86
2022/01/12 07:23:23;;;;;;;32.28;16.80;;;;;;;;;;5106603;28;20042;-85
2022/01/12 07:25:49;;;;;;;38.25;18.85;;;;;;;;;;5084655;28;20059;-87
2022/01/12 07:28:14;;;;;;;32.70;17.70;;;;;;;;;;5084107;28;20028;-85
2022/01/12 07:30:39;;;;;;;32.85;18.15;;;;;;;;;;5084476;28;20073;-85
2022/01/12 07:33:05;;;;;;;34.13;17.30;;;;;;;;;;5075705;28;20105;-86
2022/01/12 07:35:30;;;;;;;30.55;16.67;;;;;;;;;;5085208;28;20032;-86
2022/01/12 07:37:55;;;;;;;33.42;16.73;;;;;;;;;;5076903;28;20093;-85
2022/01/12 07:40:21;;;;;;;34.30;17.85;;;;;;;;;;5073092;28;20031;-85
2022/01/12 07:42:46;;;;;;;40.17;18.75;;;;;;;;;;5091487;28;20486;-86
2022/01/12 07:45:12;;;;;;;33.95;16.98;;;;;;;;;;5075989;28;20023;-86
2022/01/12 07:47:38;;;;;;;34.88;16.90;;;;;;;;;;5076886;28;20055;-86
2022/01/12 07:50:04;;;;;;;32.45;16.15;;;;;;;;;;5083633;28;20108;-87
2022/01/12 07:52:30;;;;;;;32.22;16.80;;;;;;;;;;5089408;28;20489;-85
2022/01/12 07:54:56;;;;;;;34.08;17.13;;;;;;;;;;5073958;28;20031;-85
2022/01/12 07:57:22;;;;;;;30.80;16.85;;;;;;;;;;5078284;28;20035;-85
2022/01/12 07:59:47;;;;;;;31.92;15.77;;;;;;;;;;5081931;28;20024;-88
2022/01/12 08:02:13;;;;;;;32.15;15.48;;;;;;;;;;5085914;28;20085;-85
2022/01/12 08:04:39;;;;;;;29.90;15.80;;;;;;;;;;5085657;28;20062;-86
2022/01/12 08:07:06;;;;;;;32.90;15.65;;;;;;;;;;5084415;28;21042;-86
2022/01/12 08:09:32;;;;;;;29.77;14.45;;;;;;;;;;5093593;28;20392;-87
2022/01/12 08:11:57;;;;;;;34.10;13.77;;;;;;;;;;5089667;28;20023;-85
2022/01/12 08:14:22;;;;;;;32.08;13.30;;;;;;;;;;5089575;28;20115;-86
2022/01/12 08:16:48;;;;;;;27.67;13.40;;;;;;;;;;5090108;28;20103;-87
2022/01/12 08:19:17;;;;;;;27.33;12.50;;;;;;;;;;5089149;28;20023;-84
2022/01/12 08:21:43;;;;;;;32.55;13.90;;;;;;;;;;5085314;28;20445;-85
2022/01/12 08:24:10;;;;;;;26.70;12.80;;;;;;;;;;5089104;28;20133;-85
2022/01/12 08:26:36;;;;;;;26.77;12.40;;;;;;;;;;5085918;28;20059;-86
2022/01/12 08:29:02;;;;;;;25.60;11.23;;;;;;;;;;5103639;28;20028;-85
2022/01/12 08:31:27;;;;;;;31.60;13.13;;;;;;;;;;5093425;28;20023;-88
2022/01/12 08:33:53;;;;;;;25.98;11.65;;;;;;;;;;5079420;28;20043;-84
2022/01/12 08:36:18;;;;;;;25.63;11.25;;;;;;;;;;5084910;28;20049;-87
2022/01/12 08:38:43;;;;;;;28.73;12.30;;;;;;;;;;5090718;28;20027;-86
2022/01/12 08:41:09;;;;;;;25.65;10.48;;;;;;;;;;5105493;28;20401;-86
2022/01/12 08:43:34;;;;;;;23.17;11.05;;;;;;;;;;5082326;28;20030;-87
2022/01/12 08:46:00;;;;;;;24.63;11.15;;;;;;;;;;5087835;28;20034;-85
2022/01/12 08:48:25;;;;;;;28.60;11.90;;;;;;;;;;5087997;28;20028;-86
2022/01/12 08:50:51;;;;;;;27.02;11.73;;;;;;;;;;5087063;28;20525;-86
2022/01/12 08:53:17;;;;;;;22.95;10.43;;;;;;;;;;5080158;28;20024;-85
2022/01/12 08:55:42;;;;;;;27.25;11.73;;;;;;;;;;5103337;28;20489;-84
2022/01/12 08:58:08;;;;;;;25.08;10.88;;;;;;;;;;5087829;28;20020;-85
2022/01/12 09:00:33;;;;;;;31.60;11.60;;;;;;;;;;5102705;28;20058;-84
2022/01/12 09:02:59;;;;;;;25.92;11.93;;;;;;;;;;5080457;28;20053;-85
2022/01/12 09:05:24;;;;;;;27.42;11.75;;;;;;;;;;5083233;28;20032;-86
2022/01/12 09:07:52;;;;;;;26.85;11.35;;;;;;;;;;5100603;28;20549;-86
2022/01/12 09:10:17;;;;;;;24.73;11.27;;;;;;;;;;5084087;28;20135;-86
2022/01/12 09:12:43;;;;;;;26.95;11.55;;;;;;;;;;5101390;28;20449;-85
2022/01/12 09:15:10;;;;;;;26.58;10.90;;;;;;;;;;5089889;28;20634;-85
2022/01/12 09:17:36;;;;;;;33.58;12.35;;;;;;;;;;5087500;28;20458;-84
2022/01/12 09:20:04;;;;;;;27.95;12.32;;;;;;;;;;5093350;28;20031;-85
2022/01/12 09:22:29;;;;;;;32.45;12.35;;;;;;;;;;5101548;27;20036;-86
2022/01/12 09:24:54;;;;;;;30.80;12.00;;;;;;;;;;5078145;28;20039;-86
2022/01/12 09:27:20;;;;;;;33.70;12.85;;;;;;;;;;5084847;28;20036;-86
2022/01/12 09:29:46;;;;;;;30.15;13.00;;;;;;;;;;5090050;28;20027;-85
2022/01/12 09:32:11;;;;;;;28.15;12.80;;;;;;;;;;5084847;28;20020;-86
2022/01/12 09:34:37;;;;;;;31.27;13.00;;;;;;;;;;5081756;28;20485;-85
2022/01/12 09:37:03;;;;;;;36.10;13.60;;;;;;;;;;5103773;28;20051;-86
2022/01/12 09:39:29;;;;;;;31.08;12.80;;;;;;;;;;5091580;28;20046;-86
2022/01/12 09:41:54;;;;;;;33.08;12.93;;;;;;;;;;5087413;28;20389;-86
2022/01/12 09:44:20;;;;;;;32.88;13.88;;;;;;;;;;5091960;28;20024;-86
2022/01/12 09:46:46;;;;;;;32.17;14.10;;;;;;;;;;5087038;28;20051;-85
2022/01/12 09:49:12;;;;;;;30.85;13.13;;;;;;;;;;5086368;28;20051;-84
2022/01/12 09:51:37;;;;;;;26.25;11.82;;;;;;;;;;5091897;28;20046;-87
2022/01/12 09:54:03;;;;;;;28.75;12.95;;;;;;;;;;5087558;28;20450;-87
2022/01/12 09:56:31;;;;;;;31.77;13.05;;;;;;;;;;5091564;28;20125;-85
2022/01/12 09:58:59;;;;;;;33.35;14.48;;;;;;;;;;5088504;28;20323;-84
2022/01/12 10:01:34;;;;;;;29.83;11.90;;;;;;;;;;5089240;28;20020;-84
2022/01/12 10:04:17;;;;;;;36.42;13.82;;;;;;;;;;5087824;28;20027;-85
2022/01/12 10:06:48;;;;;;;28.30;12.67;;;;;;;;;;5085464;28;20039;-85
2022/01/12 10:09:14;;;;;;;29.08;12.23;;;;;;;;;;5087110;28;20281;-85
2022/01/12 10:11:54;;;;;;;31.10;13.25;;;;;;;;;;5088505;28;20114;-86
2022/01/12 10:14:19;;;;;;;29.55;12.10;;;;;;;;;;5080395;28;20103;-84
2022/01/12 10:16:54;;;;;;;29.70;13.57;;;;;;;;;;5104460;28;20149;-84
2022/01/12 10:19:31;;;;;;;30.08;12.85;;;;;;;;;;5088225;28;20016;-85
2022/01/12 10:22:01;;;;;;;33.95;13.63;;;;;;;;;;5082458;28;20048;-86
2022/01/12 10:24:28;;;;;;;36.38;14.50;;;;;;;;;;5092339;28;20073;-85
2022/01/12 10:26:55;;;;;;;32.08;13.93;;;;;;;;;;5091924;28;20039;-84
2022/01/12 10:29:23;;;;;;;32.10;13.32;;;;;;;;;;5086660;28;20061;-88
2022/01/12 10:31:56;;;;;;;31.40;13.40;;;;;;;;;;5093729;28;20011;-84
2022/01/12 10:34:25;;;;;;;;;;;;;;;;;;5092861;28;20032;-86
2022/01/12 10:36:53;;;;;;;38.15;14.15;;;;;;;;;;5097526;28;19911;-86
2022/01/12 10:39:21;;;;;;;31.85;12.57;;;;;;;;;;5089550;28;20492;-85
2022/01/12 10:41:57;;;;;;;29.45;12.75;;;;;;;;;;5085868;28;20389;-84
2022/01/12 10:44:26;;;;;;;33.38;13.15;;;;;;;;;;5087649;28;20427;-86
2022/01/12 10:47:10;;;;;;;30.35;12.80;;;;;;;;;;5093316;28;20020;-86
2022/01/12 10:49:38;;;;;;;31.15;13.10;;;;;;;;;;5093593;28;20019;-83
2022/01/12 10:52:13;;;;;;;30.77;12.57;;;;;;;;;;5085014;28;20036;-86
2022/01/12 10:55:03;;;;;;;29.55;13.15;;;;;;;;;;5083839;28;20028;-85
2022/01/12 10:57:30;;;;;;;29.42;12.05;;;;;;;;;;5080382;28;20031;-85
2022/01/12 11:00:18;;;;;;;29.63;12.45;;;;;;;;;;5098401;28;20027;-84
2022/01/12 11:03:10;;;;;;;28.95;12.77;;;;;;;;;;5091216;28;20059;-85
2022/01/12 11:05:36;;;;;;;29.67;12.73;;;;;;;;;;5091186;28;20063;-86
2022/01/12 11:08:01;;;;;;;33.90;13.68;;;;;;;;;;5095117;28;20050;-85
2022/01/12 11:10:27;;;;;;;34.33;13.90;;;;;;;;;;5088103;28;20024;-85
2022/01/12 11:12:53;;;;;;;33.15;14.13;;;;;;;;;;5088552;28;20059;-85
2022/01/12 11:15:21;;;;;;;32.65;14.27;;;;;;;;;;5091041;28;20489;-84
2022/01/12 11:17:48;;;;;;;31.63;13.98;;;;;;;;;;5091005;28;20465;-86
2022/01/12 11:20:21;;;;;;;32.53;13.95;;;;;;;;;;5094001;28;20434;-85
2022/01/12 11:23:03;;;;;;;30.20;13.65;;;;;;;;;;5089656;28;20470;-85
2022/01/12 11:25:32;;;;;;;29.35;12.45;;;;;;;;;;5084330;28;20389;-85
2022/01/12 11:28:16;;;;;;;30.75;12.32;;;;;;;;;;5089255;28;20030;-84
2022/01/12 11:30:46;;;;;;;32.40;13.25;;;;;;;;;;5090083;28;20027;-85
2022/01/12 11:33:13;;;;;;;29.45;12.38;;;;;;;;;;5105021;28;20107;-84
2022/01/12 11:35:42;;;;;;;32.65;13.40;;;;;;;;;;5086690;28;20046;-87
2022/01/12 11:38:23;;;;;;;35.22;13.18;;;;;;;;;;5085101;28;20499;-84
2022/01/12 11:40:50;;;;;;;30.35;13.48;;;;;;;;;;5092416;28;20128;-86
2022/01/12 11:43:30;;;;;;;30.30;13.35;;;;;;;;;;5091481;28;20055;-85
2022/01/12 11:46:10;;;;;;;28.52;13.30;;;;;;;;;;5087191;28;20027;-84
2022/01/12 11:48:43;;;;;;;31.92;13.57;;;;;;;;;;5088559;28;20545;-86
2022/01/12 11:51:08;;;;;;;27.50;12.27;;;;;;;;;;5090338;28;20393;-85
2022/01/12 11:53:52;;;;;;;31.48;13.98;;;;;;;;;;5101787;28;20058;-86
2022/01/12 11:56:25;;;;;;;30.80;12.52;;;;;;;;;;5086875;28;20386;-88
2022/01/12 11:59:01;;;;;;;31.70;13.45;;;;;;;;;;5106743;28;20018;-85
2022/01/12 12:02:16;;;;;;;29.70;12.18;;;;;;;;;;5084731;28;20034;-86
2022/01/12 12:04:57;;;;;;;32.50;12.18;;;;;;;;;;5091255;28;20040;-86
2022/01/12 12:07:23;;;;;;;32.90;13.80;;;;;;;;;;5089645;28;20059;-85
2022/01/12 12:09:56;;;;;;;29.63;13.23;;;;;;;;;;5082066;28;20032;-85
2022/01/12 12:12:26;;;;;;;32.63;11.98;;;;;;;;;;5082581;28;20118;-85
2022/01/12 12:14:54;;;;;;;29.48;12.45;;;;;;;;;;5077698;28;20436;-86
2022/01/12 12:17:21;;;;;;;31.50;12.65;;;;;;;;;;5092583;28;20499;-86
2022/01/12 12:19:48;;;;;;;28.58;12.80;;;;;;;;;;5091271;28;20562;-84
2022/01/12 12:22:21;;;;;;;27.63;11.80;;;;;;;;;;5092893;28;20515;-85
2022/01/12 12:24:53;;;;;;;32.85;12.45;;;;;;;;;;5085508;28;20068;-86
2022/01/12 12:27:20;;;;;;;30.45;11.98;;;;;;;;;;5099382;28;20086;-86
2022/01/12 12:29:48;;;;;;;27.38;12.55;;;;;;;;;;5083704;28;20672;-85
2022/01/12 12:32:14;;;;;;;27.67;12.25;;;;;;;;;;5107184;28;20020;-86
2022/01/12 12:34:41;;;;;;;36.75;13.30;;;;;;;;;;5090110;28;20038;-86
2022/01/12 12:37:09;;;;;;;26.13;12.13;;;;;;;;;;5093068;28;20012;-84
2022/01/12 12:39:38;;;;;;;27.50;12.23;;;;;;;;;;5094463;28;20065;-85
2022/01/12 12:42:12;;;;;;;32.40;12.88;;;;;;;;;;5097636;28;20015;-85
2022/01/12 12:44:37;;;;;;;28.60;12.98;;;;;;;;;;5095174;28;20060;-84
2022/01/12 12:47:08;;;;;;;28.48;12.57;;;;;;;;;;5097741;28;20110;-85
2022/01/12 12:49:56;;;;;;;31.20;12.30;;;;;;;;;;5094403;28;20028;-85
2022/01/12 12:52:23;;;;;;;29.63;12.30;;;;;;;;;;5115119;28;20016;-85
2022/01/12 12:54:48;;;;;;;35.40;13.68;;;;;;;;;;5093817;28;20409;-85
2022/01/12 12:57:20;;;;;;;26.40;12.07;;;;;;;;;;5094609;28;20026;-85
2022/01/12 12:59:47;;;;;;;36.88;14.02;;;;;;;;;;5092326;28;20520;-85
2022/01/12 13:02:13;;;;;;;32.58;13.93;;;;;;;;;;5113751;28;20158;-86
2022/01/12 13:04:39;;;;;;;32.85;12.48;;;;;;;;;;5089058;28;20504;-85
2022/01/12 13:07:17;;;;;;;30.00;12.80;;;;;;;;;;5091606;28;20020;-85
2022/01/12 13:09:43;;;;;;;31.15;13.98;;;;;;;;;;5090549;28;20498;-86
2022/01/12 13:12:09;;;;;;;31.52;13.88;;;;;;;;;;5091014;28;20027;-86
2022/01/12 13:14:47;;;;;;;30.77;12.25;;;;;;;;;;5094843;28;20035;-85
2022/01/12 13:17:14;;;;;;;32.45;13.52;;;;;;;;;;5090051;28;20367;-85
2022/01/12 13:22:33;;;;;;;27.63;12.18;;;;;;;;;;5111974;28;20473;-85
2022/01/12 13:25:00;;;;;;;29.13;12.75;;;;;;;;;;5084785;28;20027;-86
2022/01/12 13:27:27;;;;;;;33.92;13.20;;;;;;;;;;5089420;28;20255;-85
2022/01/12 13:29:53;;;;;;;31.45;12.70;;;;;;;;;;5103845;28;20034;-86
2022/01/12 13:32:19;;;;;;;35.70;13.20;;;;;;;;;;5085987;28;20024;-86
2022/01/12 13:34:59;;;;;;;30.83;13.85;;;;;;;;;;5085286;28;20031;-85
2022/01/12 13:37:25;;;;;;;32.00;13.25;;;;;;;;;;5082093;28;21189;-85
2022/01/12 13:40:12;;;;;;;30.05;13.10;;;;;;;;;;5091583;28;20039;-86
2022/01/12 13:42:59;;;;;;;26.20;12.35;;;;;;;;;;5087546;28;20529;-85
2022/01/12 13:45:42;;;;;;;30.05;12.77;;;;;;;;;;5084531;28;20426;-84
2022/01/12 13:48:14;;;;;;;27.50;12.27;;;;;;;;;;5081640;28;20050;-84
2022/01/12 13:50:44;;;;;;;29.95;13.32;;;;;;;;;;5092941;28;20027;-84
2022/01/12 13:53:09;;;;;;;34.80;14.30;;;;;;;;;;5108498;28;20028;-82
2022/01/12 13:55:36;;;;;;;35.30;13.75;;;;;;;;;;5084530;28;20535;-85
2022/01/12 13:58:09;;;;;;;33.42;13.95;;;;;;;;;;5085384;28;20039;-83
2022/01/12 14:00:37;;;;;;;28.35;12.38;;;;;;;;;;5084868;28;20763;-85
2022/01/12 14:03:13;;;;;;;30.20;13.75;;;;;;;;;;5105236;28;20089;-84
2022/01/12 14:05:39;;;;;;;35.65;13.95;;;;;;;;;;5107739;27;20031;-86
2022/01/12 14:08:12;;;;;;;43.78;14.15;;;;;;;;;;5086602;28;20366;-85
2022/01/12 14:10:40;;;;;;;30.95;13.75;;;;;;;;;;5086821;28;20550;-83
2022/01/12 14:13:06;;;;;;;33.03;13.63;;;;;;;;;;5085022;28;20115;-83
2022/01/12 14:15:33;;;;;;;31.58;13.75;;;;;;;;;;5091606;28;20532;-85
2022/01/12 14:17:59;;;;;;;32.22;14.73;;;;;;;;;;5103625;28;20710;-85
2022/01/12 14:20:30;;;;;;;35.60;14.93;;;;;;;;;;5103601;28;20074;-84
2022/01/12 14:22:59;;;;;;;31.50;13.32;;;;;;;;;;5086267;28;20076;-85
2022/01/12 14:25:48;;;;;;;31.13;13.52;;;;;;;;;;5085256;28;20054;-85
2022/01/12 14:28:38;;;;;;;28.45;13.30;;;;;;;;;;5086740;28;20028;-85
2022/01/12 14:31:03;;;;;;;35.33;13.25;;;;;;;;;;5086099;28;20043;-85
2022/01/12 14:33:28;;;;;;;30.10;13.65;;;;;;;;;;5085961;28;20081;-83
2022/01/12 14:35:54;;;;;;;27.27;12.18;;;;;;;;;;5078377;28;20036;-85
2022/01/12 14:38:20;;;;;;;28.70;12.23;;;;;;;;;;5080250;28;20047;-86
2022/01/12 14:40:45;;;;;;;29.23;12.38;;;;;;;;;;5081940;28;20490;-85
2022/01/12 14:43:12;;;;;;;32.15;12.65;;;;;;;;;;5089945;28;20111;-86
2022/01/12 14:45:42;;;;;;;30.25;13.32;;;;;;;;;;5083881;28;20057;-86
2022/01/12 14:48:12;;;;;;;29.83;13.68;;;;;;;;;;5087412;28;20023;-84
2022/01/12 14:50:38;;;;;;;27.58;12.77;;;;;;;;;;5085879;28;20672;-85
2022/01/12 14:53:05;;;;;;;27.95;12.85;;;;;;;;;;5088169;28;20020;-86
2022/01/12 14:55:31;;;;;;;25.30;12.75;;;;;;;;;;5089332;28;20027;-84
2022/01/12 14:57:57;;;;;;;29.70;12.65;;;;;;;;;;5076004;28;20032;-86
2022/01/12 15:00:27;;;;;;;26.27;12.68;;;;;;;;;;5079735;28;20031;-85
2022/01/12 15:02:55;;;;;;;28.25;11.90;;;;;;;;;;5086450;28;20082;-84
2022/01/12 15:05:23;;;;;;;30.38;13.48;;;;;;;;;;5080357;28;20501;-83
2022/01/12 15:07:50;;;;;;;37.17;13.98;;;;;;;;;;5082590;28;20035;-85
2022/01/12 15:10:15;;;;;;;35.30;13.80;;;;;;;;;;5078894;28;20035;-84
2022/01/12 15:12:41;;;;;;;30.80;13.70;;;;;;;;;;5096738;28;20039;-84
2022/01/12 15:15:10;;;;;;;30.25;12.23;;;;;;;;;;5077358;28;20024;-84
2022/01/12 15:17:37;;;;;;;34.63;12.75;;;;;;;;;;5079005;28;20520;-86
2022/01/12 15:20:08;;;;;;;33.33;13.73;;;;;;;;;;5083120;28;20028;-86
2022/01/12 15:22:36;;;;;;;30.20;11.80;;;;;;;;;;5078958;28;20128;-86
2022/01/12 15:25:02;;;;;;;31.95;12.48;;;;;;;;;;5079564;28;20518;-84
2022/01/12 15:27:28;;;;;;;30.00;12.82;;;;;;;;;;5097147;28;20101;-86
2022/01/12 15:29:55;;;;;;;32.92;13.40;;;;;;;;;;5077547;28;20380;-85
2022/01/12 15:32:20;;;;;;;31.08;12.88;;;;;;;;;;5081729;28;20149;-82
2022/01/12 15:34:45;;;;;;;27.65;12.38;;;;;;;;;;5094340;28;20032;-82
2022/01/12 15:37:11;;;;;;;30.13;13.32;;;;;;;;;;5083395;28;20024;-84
2022/01/12 15:39:36;;;;;;;32.83;13.63;;;;;;;;;;5078257;28;20034;-83
2022/01/12 15:42:02;;;;;;;37.08;13.18;;;;;;;;;;5084087;28;20699;-84
2022/01/12 15:44:27;;;;;;;31.83;13.68;;;;;;;;;;5080992;28;20542;-83
2022/01/12 15:46:53;;;;;;;33.08;13.70;;;;;;;;;;5080218;28;20031;-84